Time;durP1;ratioP1;P1;durP2;ratioP2;P2;SDS_P1;SDS_P2;PMS_P1;PMS_P2;Temp;Humidity;BMP_temperature;BMP_pressure;BME280_temperature;BME280_humidity;BME280_pressure;Samples;Min_cycle;Max_cycle;Signal;HPM_P1;HPM_P2
2024/05/07 00:00:40;;;;;;;24.98;18.92;;;10.80;99.90;;;;;;5381463;26;20036;-80
2024/05/07 00:03:09;;;;;;;21.33;16.38;;;10.70;99.90;;;;;;5381098;26;20008;-80
2024/05/07 00:05:36;;;;;;;24.17;18.55;;;10.70;99.90;;;;;;5375400;26;20445;-80
2024/05/07 00:08:04;;;;;;;25.73;18.95;;;10.70;99.90;;;;;;5317118;26;20008;-80
2024/05/07 00:10:31;;;;;;;23.50;17.40;;;10.60;99.90;;;;;;5317732;26;20032;-80
2024/05/07 00:13:03;;;;;;;22.73;18.05;;;10.60;99.90;;;;;;5346299;26;19997;-80
2024/05/07 00:15:30;;;;;;;25.30;18.42;;;10.50;99.90;;;;;;5374531;26;20029;-80
2024/05/07 00:17:57;;;;;;;22.77;18.02;;;10.50;99.90;;;;;;5316758;26;20001;-80
2024/05/07 00:20:24;;;;;;;22.88;17.25;;;10.40;99.90;;;;;;5317548;26;20000;-80
2024/05/07 00:22:55;;;;;;;22.75;17.90;;;10.40;99.90;;;;;;5345970;26;20015;-80
2024/05/07 00:25:22;;;;;;;25.17;18.52;;;10.30;99.90;;;;;;5375024;26;20000;-80
2024/05/07 00:27:49;;;;;;;24.55;19.67;;;10.30;99.90;;;;;;5347352;26;20048;-80
2024/05/07 00:30:16;;;;;;;24.08;18.95;;;10.20;99.90;;;;;;5317400;26;20016;-80
2024/05/07 00:32:48;;;;;;;21.98;16.95;;;10.20;99.90;;;;;;5345706;26;20319;-80
2024/05/07 00:35:15;;;;;;;23.60;17.40;;;10.20;99.90;;;;;;5317083;26;20426;-80
2024/05/07 00:37:42;;;;;;;22.70;16.83;;;10.10;99.90;;;;;;5346048;26;19997;-80
2024/05/07 00:40:11;;;;;;;24.55;18.85;;;10.00;99.90;;;;;;5345922;26;19997;-80
2024/05/07 00:42:50;;;;;;;25.52;17.20;;;10.00;99.90;;;;;;5346417;26;20074;-79
2024/05/07 00:45:17;;;;;;;24.40;17.00;;;9.90;99.90;;;;;;5347524;26;20001;-79
2024/05/07 00:47:45;;;;;;;28.48;19.77;;;9.90;99.90;;;;;;5374515;26;20012;-79
2024/05/07 00:50:13;;;;;;;25.60;18.33;;;9.90;99.90;;;;;;5345893;26;20063;-80
2024/05/07 00:52:44;;;;;;;23.98;18.60;;;9.90;99.90;;;;;;5347917;26;20001;-80
2024/05/07 00:55:13;;;;;;;22.52;16.90;;;9.80;99.90;;;;;;5316569;26;20001;-80
2024/05/07 00:57:41;;;;;;;21.83;17.17;;;9.90;99.90;;;;;;5347347;26;20070;-80
2024/05/07 01:00:09;;;;;;;20.48;15.30;;;9.90;99.90;;;;;;5316698;26;20001;-80
2024/05/07 01:02:43;;;;;;;22.98;15.98;;;9.90;99.90;;;;;;5345663;26;20011;-80
2024/05/07 01:05:10;;;;;;;19.20;15.45;;;9.90;99.90;;;;;;5374083;26;20005;-80
2024/05/07 01:07:38;;;;;;;23.15;16.92;;;9.90;99.90;;;;;;5345027;26;20015;-79
2024/05/07 01:10:05;;;;;;;18.33;15.15;;;9.90;99.90;;;;;;5345412;26;20544;-80
2024/05/07 01:12:37;;;;;;;22.33;15.00;;;9.90;99.90;;;;;;5345337;26;20023;-80
2024/05/07 01:15:04;;;;;;;17.73;14.60;;;9.90;99.90;;;;;;5344850;26;20028;-80
2024/05/07 01:17:32;;;;;;;19.38;15.50;;;9.90;99.90;;;;;;5280623;26;975600;-80
2024/05/07 01:19:59;;;;;;;17.75;14.27;;;9.90;99.90;;;;;;5345091;26;19999;-80
2024/05/07 01:22:30;;;;;;;19.25;14.73;;;9.90;99.90;;;;;;5346994;26;20029;-80
2024/05/07 01:24:57;;;;;;;19.50;15.15;;;9.90;99.90;;;;;;5374083;26;20013;-80
2024/05/07 01:27:25;;;;;;;21.02;16.90;;;10.00;99.90;;;;;;5345220;26;20071;-80
2024/05/07 01:29:52;;;;;;;18.63;14.90;;;10.00;99.90;;;;;;5343784;26;19997;-79
2024/05/07 01:32:19;;;;;;;18.15;15.23;;;10.00;99.90;;;;;;5374034;26;20029;-79
2024/05/07 01:34:47;;;;;;;17.65;13.45;;;10.00;99.90;;;;;;5345006;26;20001;-79
2024/05/07 01:37:14;;;;;;;20.35;15.18;;;10.00;99.90;;;;;;5344575;26;20435;-79
2024/05/07 01:39:41;;;;;;;19.77;14.95;;;10.00;99.90;;;;;;5316317;26;20009;-79
2024/05/07 01:42:09;;;;;;;22.85;15.27;;;10.00;99.90;;;;;;5373474;26;20016;-79
2024/05/07 01:44:36;;;;;;;23.77;14.20;;;10.00;99.90;;;;;;5344916;26;20012;-79
2024/05/07 01:47:03;;;;;;;17.17;14.00;;;10.10;99.90;;;;;;5344517;26;20001;-79
2024/05/07 01:49:30;;;;;;;21.13;16.42;;;10.00;99.90;;;;;;5316272;26;20052;-79
2024/05/07 01:51:58;;;;;;;18.17;14.32;;;10.00;99.90;;;;;;5344512;26;20467;-79
2024/05/07 01:54:25;;;;;;;22.42;16.02;;;10.00;99.90;;;;;;5344773;26;20001;-79
2024/05/07 01:56:52;;;;;;;20.90;16.42;;;10.00;99.90;;;;;;5374048;26;19997;-79
2024/05/07 01:59:19;;;;;;;17.48;14.50;;;10.20;99.90;;;;;;5373417;26;19997;-79
2024/05/07 02:01:46;;;;;;;20.60;15.95;;;10.00;99.90;;;;;;5344802;26;19998;-79
2024/05/07 02:04:13;;;;;;;21.30;15.50;;;10.00;99.90;;;;;;5344322;26;20454;-79
2024/05/07 02:06:40;;;;;;;18.02;14.85;;;10.00;99.90;;;;;;5373533;26;19996;-79
2024/05/07 02:09:07;;;;;;;22.50;16.20;;;10.00;99.90;;;;;;5344419;26;20009;-79
2024/05/07 02:11:34;;;;;;;22.23;17.00;;;10.00;99.90;;;;;;5344837;26;20001;-79
2024/05/07 02:14:08;;;;;;;22.45;16.92;;;10.00;99.90;;;;;;5315576;26;20015;-79
2024/05/07 02:16:35;;;;;;;23.02;17.75;;;10.10;99.90;;;;;;5344404;26;20000;-79
2024/05/07 02:19:02;;;;;;;21.52;16.80;;;10.10;99.90;;;;;;5344303;26;20136;-79
2024/05/07 02:21:29;;;;;;;23.67;17.45;;;10.30;99.90;;;;;;5315750;26;20001;-79
2024/05/07 02:23:56;;;;;;;22.25;17.38;;;10.10;99.90;;;;;;5344372;26;20545;-79
2024/05/07 02:26:23;;;;;;;24.60;16.05;;;10.10;99.90;;;;;;5344295;26;20001;-79
2024/05/07 02:28:50;;;;;;;19.70;17.58;;;10.10;99.90;;;;;;5373228;26;20001;-79
2024/05/07 02:31:17;;;;;;;21.23;16.48;;;10.10;99.90;;;;;;5344181;26;20012;-79
2024/05/07 02:33:44;;;;;;;21.85;17.27;;;10.10;99.90;;;;;;5344456;26;20007;-79
2024/05/07 02:36:11;;;;;;;23.52;16.48;;;10.10;99.90;;;;;;5343966;26;20858;-79
2024/05/07 02:38:38;;;;;;;21.98;17.17;;;10.10;99.90;;;;;;5344558;26;19997;-80
2024/05/07 02:41:05;;;;;;;22.95;16.92;;;10.10;99.90;;;;;;5343496;26;19997;-79
2024/05/07 02:43:32;;;;;;;25.42;18.38;;;10.00;99.90;;;;;;5315613;26;20025;-80
2024/05/07 02:45:59;;;;;;;21.38;17.10;;;10.10;99.90;;;;;;5346204;26;20451;-79
2024/05/07 02:48:26;;;;;;;25.50;19.30;;;10.00;99.90;;;;;;5343861;26;20009;-79
2024/05/07 02:50:56;;;;;;;22.55;17.63;;;9.90;99.90;;;;;;5315577;26;20015;-79
2024/05/07 02:53:23;;;;;;;26.13;18.70;;;9.90;99.90;;;;;;5315015;26;20069;-79
2024/05/07 02:55:50;;;;;;;25.88;20.30;;;9.90;99.90;;;;;;5315254;26;20001;-80
2024/05/07 02:58:17;;;;;;;25.02;19.17;;;9.90;99.90;;;;;;5315154;26;20443;-79
2024/05/07 03:00:44;;;;;;;25.50;18.67;;;9.90;99.90;;;;;;5350433;26;20093;-79
2024/05/07 03:03:11;;;;;;;26.95;18.20;;;9.80;99.90;;;;;;5377548;26;20087;-79
2024/05/07 03:05:40;;;;;;;24.30;18.40;;;9.80;99.90;;;;;;5407038;26;20000;-79
2024/05/07 03:08:08;;;;;;;25.48;19.10;;;9.80;99.90;;;;;;5407929;26;20008;-79
2024/05/07 03:10:35;;;;;;;25.98;18.75;;;9.80;99.90;;;;;;5378458;26;20000;-79
2024/05/07 03:13:04;;;;;;;27.17;19.02;;;9.80;99.90;;;;;;5379339;26;19996;-79
2024/05/07 03:15:31;;;;;;;27.60;18.92;;;9.70;99.90;;;;;;5349228;26;20134;-79
2024/05/07 03:17:58;;;;;;;24.77;17.27;;;9.80;99.90;;;;;;5321166;26;20337;-79
2024/05/07 03:20:25;;;;;;;22.02;17.33;;;9.80;99.90;;;;;;5407503;26;20073;-79
2024/05/07 03:22:57;;;;;;;26.92;20.73;;;9.80;99.90;;;;;;5378953;26;20384;-79
2024/05/07 03:25:25;;;;;;;26.48;19.67;;;9.80;99.90;;;;;;5407659;26;19996;-79
2024/05/07 03:27:52;;;;;;;26.92;19.27;;;9.80;99.90;;;;;;5378842;26;20019;-82
2024/05/07 03:30:19;;;;;;;25.20;18.85;;;9.80;99.90;;;;;;5377653;26;20000;-79
2024/05/07 03:32:52;;;;;;;27.17;20.17;;;9.80;99.90;;;;;;5378320;26;20042;-79
2024/05/07 03:35:19;;;;;;;26.95;18.50;;;9.80;99.90;;;;;;5407406;26;20004;-79
2024/05/07 03:37:46;;;;;;;26.88;20.02;;;9.80;99.90;;;;;;5378180;26;20000;-79
2024/05/07 03:40:13;;;;;;;23.75;17.50;;;9.80;99.90;;;;;;5349061;26;20008;-79
2024/05/07 03:42:47;;;;;;;24.92;17.88;;;9.80;99.90;;;;;;5378460;26;20000;-79
2024/05/07 03:45:16;;;;;;;24.55;19.08;;;9.80;99.90;;;;;;5377779;26;20021;-79
2024/05/07 03:47:43;;;;;;;26.25;19.52;;;9.80;99.90;;;;;;5378108;26;20042;-78
2024/05/07 03:50:10;;;;;;;26.02;20.52;;;9.70;99.90;;;;;;5407234;26;20015;-79
2024/05/07 03:52:43;;;;;;;30.10;19.85;;;9.70;99.90;;;;;;5380110;26;20422;-79
2024/05/07 03:55:10;;;;;;;32.80;21.83;;;9.70;99.90;;;;;;5352928;26;20015;-79
2024/05/07 03:57:38;;;;;;;29.05;21.30;;;9.60;99.90;;;;;;5352671;26;20024;-79
2024/05/07 04:00:06;;;;;;;28.33;20.02;;;9.60;99.90;;;;;;5352781;26;20015;-79
2024/05/07 04:02:39;;;;;;;25.73;19.52;;;9.60;99.90;;;;;;5383492;26;20004;-79
2024/05/07 04:05:06;;;;;;;29.50;20.40;;;9.70;99.90;;;;;;5381305;26;19996;-79
2024/05/07 04:07:34;;;;;;;29.98;19.50;;;9.70;99.90;;;;;;5382720;26;19996;-79
2024/05/07 04:10:01;;;;;;;25.27;19.88;;;9.60;99.90;;;;;;5381365;26;20016;-79
2024/05/07 04:12:29;;;;;;;30.33;20.58;;;9.60;99.90;;;;;;5381051;26;20000;-79
2024/05/07 04:14:56;;;;;;;27.75;20.35;;;9.60;99.90;;;;;;5381280;26;20509;-79
2024/05/07 04:17:23;;;;;;;31.15;22.70;;;9.60;99.90;;;;;;5351769;26;20011;-79
2024/05/07 04:19:51;;;;;;;27.60;20.52;;;9.60;99.90;;;;;;5410578;26;20345;-79
2024/05/07 04:22:18;;;;;;;29.98;22.77;;;9.60;99.90;;;;;;5351797;26;20000;-79
2024/05/07 04:24:45;;;;;;;29.33;19.95;;;9.70;99.90;;;;;;5352158;26;20000;-79
2024/05/07 04:27:12;;;;;;;31.55;22.15;;;9.70;99.90;;;;;;5352107;26;20000;-79
2024/05/07 04:29:39;;;;;;;32.15;20.60;;;9.70;99.90;;;;;;5351886;26;20012;-79
2024/05/07 04:32:06;;;;;;;27.45;20.90;;;9.80;99.90;;;;;;5351831;26;20073;-79
2024/05/07 04:34:33;;;;;;;29.30;19.80;;;9.80;99.90;;;;;;5351572;26;19996;-79
2024/05/07 04:37:00;;;;;;;29.80;21.48;;;9.90;99.90;;;;;;5351865;26;20006;-79
2024/05/07 04:39:27;;;;;;;31.73;20.77;;;10.00;99.90;;;;;;5382280;26;20004;-79
2024/05/07 04:41:54;;;;;;;29.90;22.48;;;10.00;99.90;;;;;;5410113;26;20000;-79
2024/05/07 04:44:21;;;;;;;29.70;20.70;;;10.10;99.90;;;;;;5380456;26;20297;-79
2024/05/07 04:46:48;;;;;;;29.88;21.13;;;10.10;99.90;;;;;;5380885;26;19996;-79
2024/05/07 04:49:19;;;;;;;28.17;20.35;;;10.20;99.90;;;;;;5352007;26;19996;-79
2024/05/07 04:51:46;;;;;;;29.73;22.83;;;10.20;99.90;;;;;;5380914;26;20012;-79
2024/05/07 04:54:13;;;;;;;28.60;21.02;;;10.30;99.90;;;;;;5351592;26;20015;-79
2024/05/07 04:56:41;;;;;;;27.55;20.30;;;10.40;99.90;;;;;;5380149;26;20000;-79
2024/05/07 04:59:08;;;;;;;27.13;19.98;;;10.40;99.90;;;;;;5380462;26;20001;-79
2024/05/07 05:01:35;;;;;;;26.08;18.63;;;10.40;99.90;;;;;;5404651;26;20009;-79
2024/05/07 05:04:02;;;;;;;24.50;18.42;;;10.50;99.90;;;;;;5350361;26;20000;-79
2024/05/07 05:06:29;;;;;;;26.27;17.52;;;10.60;99.90;;;;;;5377903;26;20000;-79
2024/05/07 05:08:56;;;;;;;26.20;18.38;;;10.60;99.90;;;;;;5381982;26;20011;-80
2024/05/07 05:11:23;;;;;;;25.45;18.83;;;10.70;99.90;;;;;;5409464;26;20001;-80
2024/05/07 05:13:51;;;;;;;23.58;16.60;;;10.70;99.90;;;;;;5380224;26;20014;-80
2024/05/07 05:16:18;;;;;;;24.50;18.85;;;10.80;99.90;;;;;;5380476;26;20004;-80
2024/05/07 05:18:45;;;;;;;22.95;17.00;;;10.90;99.90;;;;;;5409288;26;20050;-80
2024/05/07 05:21:12;;;;;;;22.98;16.58;;;11.00;99.90;;;;;;5380014;26;20014;-80
2024/05/07 05:23:39;;;;;;;22.20;18.30;;;11.10;99.90;;;;;;5380012;26;20158;-80
2024/05/07 05:26:06;;;;;;;26.17;18.30;;;11.40;99.90;;;;;;5379886;26;19996;-80
2024/05/07 05:28:33;;;;;;;22.38;15.93;;;11.90;99.90;;;;;;5379736;26;20008;-80
2024/05/07 05:31:00;;;;;;;25.70;17.25;;;12.40;99.90;;;;;;5379966;26;20077;-80
2024/05/07 05:33:29;;;;;;;19.27;15.50;;;12.90;99.90;;;;;;5379279;26;20011;-81
2024/05/07 05:35:56;;;;;;;18.23;14.95;;;13.60;99.90;;;;;;5409210;26;20036;-82
2024/05/07 05:38:23;;;;;;;18.10;15.85;;;14.10;99.90;;;;;;5409385;26;20011;-82
2024/05/07 05:40:51;;;;;;;15.32;13.45;;;14.60;99.90;;;;;;5379217;26;20015;-82
2024/05/07 05:43:18;;;;;;;16.88;14.40;;;14.70;99.90;;;;;;5350691;26;20000;-82
2024/05/07 05:45:46;;;;;;;17.27;15.32;;;14.80;99.90;;;;;;5379353;26;20453;-82
2024/05/07 05:48:14;;;;;;;18.48;14.43;;;14.70;99.90;;;;;;5379620;26;20023;-81
2024/05/07 05:50:41;;;;;;;16.45;14.02;;;14.50;99.90;;;;;;5350263;26;20014;-82
2024/05/07 05:53:09;;;;;;;17.20;14.57;;;14.40;99.90;;;;;;5350871;26;20011;-82
2024/05/07 05:55:37;;;;;;;17.27;15.00;;;14.30;99.90;;;;;;5350516;26;19996;-81
2024/05/07 05:58:05;;;;;;;20.25;16.25;;;14.20;99.90;;;;;;5408956;26;20466;-82
2024/05/07 06:00:32;;;;;;;17.08;14.05;;;14.10;99.90;;;;;;5379150;26;20077;-82
2024/05/07 06:03:03;;;;;;;;;;;14.10;99.90;;;;;;5352033;26;20000;-82
2024/05/07 06:05:30;;;;;;;17.23;14.50;;;14.10;99.90;;;;;;5322413;26;19933;-82
2024/05/07 06:07:58;;;;;;;19.25;14.75;;;14.10;99.90;;;;;;5379352;26;20329;-82
2024/05/07 06:10:25;;;;;;;18.63;14.18;;;14.30;99.90;;;;;;5350327;26;20434;-82
2024/05/07 06:12:58;;;;;;;14.80;13.13;;;14.40;99.90;;;;;;5368437;26;20005;-82
2024/05/07 06:15:25;;;;;;;16.00;12.50;;;14.60;99.90;;;;;;5378707;26;20024;-82
2024/05/07 06:17:56;;;;;;;15.65;12.93;;;14.70;99.90;;;;;;5343267;26;20011;-82
2024/05/07 06:20:23;;;;;;;15.82;12.00;;;14.60;99.90;;;;;;5356083;26;20358;-82
2024/05/07 06:22:59;;;;;;;15.88;13.18;;;14.60;99.90;;;;;;5373124;26;20033;-81
2024/05/07 06:25:26;;;;;;;17.00;15.27;;;14.50;99.90;;;;;;5344507;26;20411;-81
2024/05/07 06:27:53;;;;;;;17.60;15.63;;;14.60;99.90;;;;;;5345213;26;20404;-82
2024/05/07 06:30:21;;;;;;;16.38;14.10;;;14.50;99.90;;;;;;5344010;26;20001;-80
2024/05/07 06:32:50;;;;;;;17.77;15.15;;;14.60;99.90;;;;;;5316922;26;20008;-79
2024/05/07 06:35:18;;;;;;;17.20;14.50;;;14.80;99.90;;;;;;5344664;26;20009;-79
2024/05/07 06:37:44;;;;;;;17.48;13.15;;;15.10;99.90;;;;;;5346713;26;20393;-79
2024/05/07 06:40:14;;;;;;;16.67;13.98;;;15.70;99.90;;;;;;5344895;26;20012;-80
2024/05/07 06:42:46;;;;;;;17.23;14.15;;;16.60;99.90;;;;;;5347410;26;20061;-80
2024/05/07 06:45:14;;;;;;;15.20;13.60;;;17.40;99.90;;;;;;5374057;26;20001;-80
2024/05/07 06:47:41;;;;;;;16.48;14.23;;;17.90;99.90;;;;;;5346256;26;20074;-80
2024/05/07 06:50:08;;;;;;;14.52;13.02;;;18.20;99.90;;;;;;5344391;26;20012;-79
2024/05/07 06:52:43;;;;;;;14.35;12.63;;;18.50;99.90;;;;;;5344367;26;20011;-80
2024/05/07 06:55:10;;;;;;;15.70;14.10;;;18.70;99.30;;;;;;5344303;26;20001;-79
2024/05/07 06:57:37;;;;;;;10.43;9.32;;;18.90;98.20;;;;;;5344109;26;20008;-79
2024/05/07 07:00:05;;;;;;;13.32;12.02;;;18.90;97.30;;;;;;5344342;26;20011;-79
2024/05/07 07:02:37;;;;;;;15.85;12.30;;;18.80;97.20;;;;;;5344046;26;20001;-78
2024/05/07 07:05:05;;;;;;;13.82;12.27;;;18.60;96.40;;;;;;5345786;26;20013;-78
2024/05/07 07:07:32;;;;;;;14.13;12.73;;;18.30;96.00;;;;;;5345728;26;20023;-78
2024/05/07 07:09:59;;;;;;;14.85;13.35;;;18.00;96.00;;;;;;5345199;26;20012;-78
2024/05/07 07:12:26;;;;;;;14.43;12.95;;;17.70;96.00;;;;;;5343995;26;19997;-78
2024/05/07 07:14:56;;;;;;;15.38;13.05;;;17.40;96.00;;;;;;5315931;26;19997;-78
2024/05/07 07:17:23;;;;;;;16.33;13.73;;;17.20;96.40;;;;;;5372516;26;20075;-78
2024/05/07 07:19:51;;;;;;;15.93;13.98;;;17.10;97.10;;;;;;5372149;26;20012;-78
2024/05/07 07:22:19;;;;;;;14.35;12.90;;;17.30;97.10;;;;;;5344004;26;20008;-78
2024/05/07 07:24:46;;;;;;;14.13;12.60;;;17.50;96.90;;;;;;5343715;26;20385;-78
2024/05/07 07:27:13;;;;;;;15.25;13.52;;;18.00;96.70;;;;;;5344181;26;20008;-78
2024/05/07 07:29:40;;;;;;;14.23;12.32;;;18.50;96.40;;;;;;5345747;26;20001;-78
2024/05/07 07:32:07;;;;;;;13.52;11.85;;;19.10;95.40;;;;;;5346715;26;19997;-78
2024/05/07 07:34:34;;;;;;;11.57;10.20;;;19.80;95.10;;;;;;5348578;26;20013;-78
2024/05/07 07:37:04;;;;;;;12.95;11.63;;;20.30;93.70;;;;;;5348107;26;20023;-79
2024/05/07 07:39:31;;;;;;;13.38;11.38;;;20.80;92.50;;;;;;5346729;26;20001;-78
2024/05/07 07:41:58;;;;;;;13.52;11.38;;;21.40;91.90;;;;;;5348093;26;20001;-78
2024/05/07 07:44:25;;;;;;;12.05;10.75;;;22.00;90.80;;;;;;5346563;26;20001;-78
2024/05/07 07:46:52;;;;;;;11.82;10.63;;;22.30;89.90;;;;;;5375266;26;20397;-78
2024/05/07 07:49:20;;;;;;;12.50;11.20;;;22.80;88.30;;;;;;5375571;26;20012;-79
2024/05/07 07:51:47;;;;;;;12.88;11.55;;;23.20;86.60;;;;;;5346613;26;20082;-78
2024/05/07 07:54:14;;;;;;;11.95;10.63;;;23.40;85.50;;;;;;5375758;26;20445;-79
2024/05/07 07:56:42;;;;;;;13.40;12.00;;;23.60;83.90;;;;;;5347055;26;20008;-79
2024/05/07 07:59:09;;;;;;;10.90;9.90;;;23.60;82.30;;;;;;5374050;26;20519;-79
2024/05/07 08:01:43;;;;;;;11.93;10.73;;;23.50;82.10;;;;;;5381077;26;19992;-78
2024/05/07 08:04:11;;;;;;;11.13;9.95;;;23.30;81.60;;;;;;5380649;26;20317;-78
2024/05/07 08:06:39;;;;;;;11.07;10.07;;;22.80;81.10;;;;;;5352386;26;20073;-78
2024/05/07 08:09:06;;;;;;;12.25;10.82;;;22.60;81.60;;;;;;5380900;26;20070;-78
2024/05/07 08:11:33;;;;;;;11.40;10.20;;;22.40;82.50;;;;;;5382792;26;20000;-79
2024/05/07 08:14:00;;;;;;;12.13;10.13;;;22.40;81.80;;;;;;5380865;26;20405;-79
2024/05/07 08:16:27;;;;;;;12.23;10.75;;;22.70;81.90;;;;;;5381337;26;20000;-78
2024/05/07 08:18:54;;;;;;;12.50;10.70;;;23.20;80.90;;;;;;5382987;26;20072;-79
2024/05/07 08:21:22;;;;;;;11.68;10.13;;;23.60;80.00;;;;;;5381440;26;20026;-78
2024/05/07 08:23:49;;;;;;;11.18;10.10;;;24.10;78.80;;;;;;5383148;26;20015;-79
2024/05/07 08:26:16;;;;;;;12.20;11.27;;;24.40;77.10;;;;;;5352291;26;20000;-78
2024/05/07 08:28:45;;;;;;;10.55;9.48;;;24.30;76.80;;;;;;5382693;26;20446;-79
2024/05/07 08:31:12;;;;;;;11.70;10.35;;;24.20;76.80;;;;;;5351929;26;20000;-78
2024/05/07 08:33:40;;;;;;;13.43;9.80;;;24.30;76.50;;;;;;5382981;26;20408;-78
2024/05/07 08:36:07;;;;;;;9.30;8.10;;;24.70;75.70;;;;;;5380795;26;19996;-79
2024/05/07 08:38:36;;;;;;;9.90;6.80;;;24.90;75.10;;;;;;5382937;26;20004;-79
2024/05/07 08:41:03;;;;;;;10.45;9.10;;;25.30;74.00;;;;;;5380731;26;20498;-79
2024/05/07 08:43:30;;;;;;;9.63;8.73;;;25.40;73.40;;;;;;5382903;26;20007;-79
2024/05/07 08:45:58;;;;;;;15.07;8.43;;;25.40;72.90;;;;;;5382135;26;20360;-80
2024/05/07 08:48:25;;;;;;;10.43;8.95;;;25.40;72.30;;;;;;5382644;26;20000;-79
2024/05/07 08:50:56;;;;;;;9.77;8.77;;;25.40;72.20;;;;;;5382540;26;20047;-79
2024/05/07 08:53:23;;;;;;;10.60;9.60;;;25.60;71.90;;;;;;5410160;26;20000;-79
2024/05/07 08:55:54;;;;;;;10.77;9.68;;;25.90;71.60;;;;;;5380553;26;20000;-79
2024/05/07 08:58:26;;;;;;;9.48;7.65;;;26.10;71.00;;;;;;5380395;26;20337;-79
2024/05/07 09:00:55;;;;;;;10.95;9.85;;;26.20;70.40;;;;;;5382325;26;20018;-79
2024/05/07 09:03:22;;;;;;;10.82;9.82;;;26.00;70.10;;;;;;5382214;26;20012;-79
2024/05/07 09:05:49;;;;;;;9.35;7.97;;;25.60;70.30;;;;;;5409930;26;20058;-79
2024/05/07 09:08:19;;;;;;;11.93;10.63;;;25.20;70.60;;;;;;5380548;26;20000;-79
2024/05/07 09:10:48;;;;;;;9.02;7.82;;;24.90;71.00;;;;;;5352688;26;19996;-79
2024/05/07 09:13:29;;;;;;;10.70;8.57;;;24.90;70.60;;;;;;5380773;26;20368;-79
2024/05/07 09:15:57;;;;;;;9.98;8.98;;;25.10;70.20;;;;;;5409792;26;20000;-79
2024/05/07 09:18:25;;;;;;;11.10;8.25;;;25.70;70.00;;;;;;5380141;26;20000;-79
2024/05/07 09:20:57;;;;;;;8.35;6.68;;;26.20;68.70;;;;;;5382282;26;20388;-79
2024/05/07 09:23:26;;;;;;;8.50;7.57;;;26.50;67.40;;;;;;5382366;26;20036;-79
2024/05/07 09:26:07;;;;;;;9.93;8.93;;;26.30;67.20;;;;;;5380409;26;20082;-80
2024/05/07 09:28:34;;;;;;;11.20;8.57;;;26.10;66.60;;;;;;5380496;26;20070;-79
2024/05/07 09:31:06;;;;;;;9.85;8.60;;;26.20;67.30;;;;;;5381630;26;20000;-79
2024/05/07 09:33:38;;;;;;;10.40;8.48;;;26.40;66.60;;;;;;5380302;26;20073;-79
2024/05/07 09:36:17;;;;;;;9.65;8.65;;;26.60;66.50;;;;;;5351263;26;20008;-79
2024/05/07 09:38:46;;;;;;;10.23;9.15;;;26.60;66.30;;;;;;5380106;26;20000;-79
2024/05/07 09:41:48;;;;;;;8.63;7.82;;;26.60;66.00;;;;;;5408994;26;20000;-79
2024/05/07 09:44:19;;;;;;;8.73;7.82;;;26.10;65.00;;;;;;5363734;26;20014;-79
2024/05/07 09:46:47;;;;;;;9.55;8.65;;;25.40;66.40;;;;;;5409569;26;20000;-79
2024/05/07 09:49:17;;;;;;;8.98;8.18;;;24.90;67.30;;;;;;5380106;26;20033;-79
2024/05/07 09:51:44;;;;;;;8.55;7.20;;;24.70;67.60;;;;;;5380880;26;20008;-79
2024/05/07 09:54:13;;;;;;;9.30;8.13;;;24.60;67.70;;;;;;5381525;26;20008;-80
2024/05/07 09:56:41;;;;;;;8.88;7.93;;;24.90;67.20;;;;;;5409384;26;20032;-80
2024/05/07 09:59:10;;;;;;;8.35;7.35;;;25.60;66.70;;;;;;5409177;26;19996;-80
2024/05/07 10:01:37;;;;;;;9.95;7.90;;;26.40;65.70;;;;;;5381624;26;19996;-79
2024/05/07 10:04:04;;;;;;;8.45;6.90;;;26.90;64.90;;;;;;5379284;26;20003;-80
2024/05/07 10:06:32;;;;;;;8.02;6.75;;;27.20;64.20;;;;;;5379435;26;20015;-80
2024/05/07 10:08:59;;;;;;;9.63;7.03;;;26.80;63.90;;;;;;5381371;26;20004;-79
2024/05/07 10:11:27;;;;;;;8.60;7.75;;;26.20;64.00;;;;;;5350333;26;20074;-79
2024/05/07 10:14:03;;;;;;;9.57;6.75;;;25.50;64.70;;;;;;5379774;26;20000;-80
2024/05/07 10:16:33;;;;;;;7.78;5.88;;;24.70;64.90;;;;;;5379541;26;20000;-79
2024/05/07 10:19:01;;;;;;;7.43;6.70;;;24.00;66.20;;;;;;5381461;26;20014;-79
2024/05/07 10:21:47;;;;;;;7.28;6.57;;;23.60;67.00;;;;;;5379908;26;20042;-79
2024/05/07 10:24:16;;;;;;;8.93;6.78;;;23.20;67.60;;;;;;5350494;26;20012;-79
2024/05/07 10:27:03;;;;;;;9.05;7.13;;;23.00;68.10;;;;;;5379854;26;20441;-80
2024/05/07 10:29:37;;;;;;;10.45;8.82;;;22.80;68.60;;;;;;5381876;26;19998;-79
2024/05/07 10:32:05;;;;;;;13.45;10.10;;;22.80;69.00;;;;;;5381782;26;20000;-79
2024/05/07 10:34:38;;;;;;;13.50;10.18;;;22.70;69.50;;;;;;5379328;26;20329;-80
2024/05/07 10:37:05;;;;;;;11.35;10.18;;;22.70;70.00;;;;;;5381094;26;20012;-79
2024/05/07 10:39:37;;;;;;;10.13;9.13;;;22.90;70.30;;;;;;5381348;26;20384;-79
2024/05/07 10:42:14;;;;;;;12.18;9.57;;;23.40;69.80;;;;;;5381282;26;20069;-79
2024/05/07 10:44:43;;;;;;;10.38;9.27;;;23.90;69.20;;;;;;5350230;26;20019;-79
2024/05/07 10:47:11;;;;;;;11.93;8.63;;;24.30;68.40;;;;;;5380639;26;20004;-79
2024/05/07 10:49:55;;;;;;;9.38;8.40;;;24.70;68.00;;;;;;5379268;26;20000;-80
2024/05/07 10:52:30;;;;;;;10.05;9.05;;;25.10;66.40;;;;;;5380924;26;20013;-79
2024/05/07 10:54:59;;;;;;;12.38;10.80;;;25.00;66.70;;;;;;5380999;26;20040;-80
2024/05/07 10:57:30;;;;;;;10.38;9.25;;;24.70;67.00;;;;;;5379192;26;20431;-79
2024/05/07 10:59:57;;;;;;;12.23;8.80;;;24.50;67.50;;;;;;5379201;26;20004;-79
2024/05/07 11:02:26;;;;;;;10.13;9.10;;;24.30;67.80;;;;;;5381759;26;20004;-79
2024/05/07 11:04:57;;;;;;;8.63;7.80;;;24.30;67.90;;;;;;5384223;26;20015;-79
2024/05/07 11:07:26;;;;;;;9.85;8.45;;;24.10;68.10;;;;;;5384312;26;19996;-79
2024/05/07 11:09:59;;;;;;;9.25;8.25;;;23.70;68.30;;;;;;5384249;26;20322;-79
2024/05/07 11:12:28;;;;;;;8.77;7.88;;;23.50;68.90;;;;;;5382911;26;20104;-79
2024/05/07 11:14:56;;;;;;;9.10;8.20;;;23.70;69.00;;;;;;5353944;26;20039;-79
2024/05/07 11:17:23;;;;;;;8.77;7.65;;;24.10;69.50;;;;;;5381804;26;20004;-80
2024/05/07 11:19:50;;;;;;;10.50;8.32;;;24.50;68.60;;;;;;5353608;26;20047;-80
2024/05/07 11:22:20;;;;;;;9.52;7.82;;;24.70;68.10;;;;;;5384352;26;20015;-79
2024/05/07 11:24:47;;;;;;;8.38;7.60;;;24.50;68.80;;;;;;5353182;26;20000;-79
2024/05/07 11:27:15;;;;;;;8.00;7.20;;;24.60;68.30;;;;;;5383929;26;20437;-79
2024/05/07 11:29:42;;;;;;;10.13;8.38;;;24.60;68.00;;;;;;5383838;26;20453;-79
2024/05/07 11:32:09;;;;;;;8.32;7.25;;;24.60;67.80;;;;;;5383825;26;20000;-79
2024/05/07 11:34:36;;;;;;;8.98;8.15;;;25.00;67.70;;;;;;5381836;26;20387;-79
2024/05/07 11:37:03;;;;;;;11.57;8.43;;;25.70;67.00;;;;;;5382045;26;20008;-79
2024/05/07 11:39:31;;;;;;;5.20;4.70;;;26.50;66.30;;;;;;5381761;26;20015;-79
2024/05/07 11:41:58;;;;;;;9.90;8.90;;;27.20;65.50;;;;;;5383862;26;19997;-79
2024/05/07 11:44:26;;;;;;;10.70;9.68;;;27.30;64.60;;;;;;5383595;26;20074;-79
2024/05/07 11:46:53;;;;;;;10.85;9.68;;;27.30;64.60;;;;;;5382256;26;19996;-79
2024/05/07 11:49:20;;;;;;;9.05;8.15;;;27.40;64.40;;;;;;5381774;26;20011;-79
2024/05/07 11:51:48;;;;;;;10.13;8.55;;;27.20;64.20;;;;;;5382082;26;20350;-80
2024/05/07 11:54:15;;;;;;;9.82;8.75;;;26.60;64.40;;;;;;5353331;26;20016;-80
2024/05/07 11:56:42;;;;;;;7.38;6.57;;;26.10;65.30;;;;;;5382426;26;20297;-80
2024/05/07 11:59:09;;;;;;;9.50;8.07;;;26.10;65.40;;;;;;5370914;26;20416;-80
2024/05/07 12:01:36;;;;;;;8.02;6.95;;;26.10;65.20;;;;;;5376068;26;20005;-79
2024/05/07 12:04:04;;;;;;;6.32;5.28;;;26.10;64.70;;;;;;5375918;26;20321;-79
2024/05/07 12:06:32;;;;;;;8.10;6.68;;;25.90;64.50;;;;;;5371914;26;20014;-80
2024/05/07 12:08:59;;;;;;;6.00;5.40;;;26.00;64.80;;;;;;5381637;26;20016;-79
2024/05/07 12:11:26;;;;;;;7.00;6.15;;;26.20;64.70;;;;;;5381223;26;20032;-79
2024/05/07 12:13:53;;;;;;;7.53;6.75;;;26.30;64.20;;;;;;5380670;26;20032;-79
2024/05/07 12:16:20;;;;;;;7.88;7.13;;;26.20;64.30;;;;;;5382984;26;20007;-80
2024/05/07 12:18:47;;;;;;;9.32;7.38;;;26.20;64.30;;;;;;5352296;26;20015;-80
2024/05/07 12:21:14;;;;;;;6.95;6.22;;;26.40;64.80;;;;;;5323900;26;20000;-80
2024/05/07 12:26:27;;;;;;;8.18;6.63;;;26.40;64.60;;;;;;5381742;26;20422;-80
2024/05/07 12:28:54;;;;;;;6.13;5.13;;;26.30;64.80;;;;;;5352289;26;20380;-80
2024/05/07 12:31:21;;;;;;;7.28;6.13;;;26.30;64.40;;;;;;5352254;26;19997;-80
2024/05/07 12:33:49;;;;;;;6.68;5.43;;;26.30;64.40;;;;;;5381336;26;20004;-80
2024/05/07 12:36:16;;;;;;;6.07;5.47;;;26.40;64.00;;;;;;5383240;26;19997;-80
2024/05/07 12:38:43;;;;;;;6.93;6.07;;;26.50;63.90;;;;;;5380888;26;20000;-80
2024/05/07 12:41:10;;;;;;;8.60;5.80;;;26.60;63.60;;;;;;5352321;26;20321;-80
2024/05/07 12:43:38;;;;;;;6.28;5.68;;;26.60;63.60;;;;;;5351663;26;20345;-80